sensor_id;sensor_type;location;lat;lon;timestamp;pressure;altitude;pressure_sealevel;temperature;humidity
58473;BME280;44775;51.564;5.460;2023-02-02T00:01:30;101879.22;;;7.42;100.00
58473;BME280;44775;51.564;5.460;2023-02-02T00:03:56;101883.69;;;7.42;100.00
58473;BME280;44775;51.564;5.460;2023-02-02T00:06:25;101875.25;;;7.37;100.00
58473;BME280;44775;51.564;5.460;2023-02-02T00:08:51;101877.66;;;7.40;100.00
58473;BME280;44775;51.564;5.460;2023-02-02T00:11:18;101875.25;;;7.37;100.00
58473;BME280;44775;51.564;5.460;2023-02-02T00:13:43;101882.25;;;7.38;100.00
58473;BME280;44775;51.564;5.460;2023-02-02T00:18:59;101875.13;;;7.38;100.00
58473;BME280;44775;51.564;5.460;2023-02-02T00:21:25;101877.06;;;7.36;100.00
58473;BME280;44775;51.564;5.460;2023-02-02T00:23:50;101880.81;;;7.33;100.00
58473;BME280;44775;51.564;5.460;2023-02-02T00:26:17;101873.81;;;7.32;100.00
58473;BME280;44775;51.564;5.460;2023-02-02T00:28:43;101879.38;;;7.29;100.00
58473;BME280;44775;51.564;5.460;2023-02-02T00:31:10;101885.03;;;7.36;100.00
58473;BME280;44775;51.564;5.460;2023-02-02T00:33:36;101889.38;;;7.48;100.00
58473;BME280;44775;51.564;5.460;2023-02-02T00:36:01;101888.41;;;7.38;100.00
58473;BME280;44775;51.564;5.460;2023-02-02T00:38:27;101886.50;;;7.40;100.00
58473;BME280;44775;51.564;5.460;2023-02-02T00:40:52;101895.69;;;7.36;100.00
58473;BME280;44775;51.564;5.460;2023-02-02T00:43:18;101892.38;;;7.55;100.00
58473;BME280;44775;51.564;5.460;2023-02-02T00:45:43;101901.47;;;7.41;100.00
58473;BME280;44775;51.564;5.460;2023-02-02T00:48:09;101901.09;;;7.46;100.00
58473;BME280;44775;51.564;5.460;2023-02-02T00:50:37;101899.53;;;7.54;100.00
58473;BME280;44775;51.564;5.460;2023-02-02T00:53:02;101897.25;;;7.50;100.00
58473;BME280;44775;51.564;5.460;2023-02-02T00:55:28;101893.00;;;7.47;100.00
58473;BME280;44775;51.564;5.460;2023-02-02T00:57:53;101895.66;;;7.47;100.00
58473;BME280;44775;51.564;5.460;2023-02-02T01:00:21;101894.44;;;7.51;100.00
58473;BME280;44775;51.564;5.460;2023-02-02T01:02:51;101886.81;;;7.58;100.00
58473;BME280;44775;51.564;5.460;2023-02-02T01:05:17;101892.84;;;7.71;100.00
58473;BME280;44775;51.564;5.460;2023-02-02T01:07:43;101894.78;;;7.58;100.00
58473;BME280;44775;51.564;5.460;2023-02-02T01:10:16;101894.75;;;7.69;100.00
58473;BME280;44775;51.564;5.460;2023-02-02T01:12:42;101887.56;;;7.60;100.00
58473;BME280;44775;51.564;5.460;2023-02-02T01:15:09;101897.44;;;7.69;100.00
58473;BME280;44775;51.564;5.460;2023-02-02T01:17:35;101897.22;;;7.61;100.00
58473;BME280;44775;51.564;5.460;2023-02-02T01:20:00;101894.56;;;7.61;100.00
58473;BME280;44775;51.564;5.460;2023-02-02T01:22:26;101893.13;;;7.57;100.00
58473;BME280;44775;51.564;5.460;2023-02-02T01:24:51;101888.84;;;7.66;100.00
58473;BME280;44775;51.564;5.460;2023-02-02T01:27:17;101894.44;;;7.51;100.00
58473;BME280;44775;51.564;5.460;2023-02-02T01:29:43;101885.84;;;7.70;100.00
58473;BME280;44775;51.564;5.460;2023-02-02T01:32:08;101888.41;;;7.61;100.00
58473;BME280;44775;51.564;5.460;2023-02-02T01:34:34;101889.97;;;7.63;100.00
58473;BME280;44775;51.564;5.460;2023-02-02T01:37:00;101888.63;;;7.57;100.00
58473;BME280;44775;51.564;5.460;2023-02-02T01:39:25;101884.16;;;7.58;100.00
58473;BME280;44775;51.564;5.460;2023-02-02T01:41:51;101893.34;;;7.54;100.00
58473;BME280;44775;51.564;5.460;2023-02-02T01:47:23;101899.28;;;7.57;100.00
58473;BME280;44775;51.564;5.460;2023-02-02T01:49:50;101903.38;;;7.62;100.00
58473;BME280;44775;51.564;5.460;2023-02-02T01:52:18;101897.47;;;7.58;100.00
58473;BME280;44775;51.564;5.460;2023-02-02T01:54:50;101898.19;;;7.60;100.00
58473;BME280;44775;51.564;5.460;2023-02-02T01:57:32;101887.56;;;7.60;100.00
58473;BME280;44775;51.564;5.460;2023-02-02T02:00:03;101893.81;;;7.59;100.00
58473;BME280;44775;51.564;5.460;2023-02-02T02:02:30;101888.03;;;7.54;100.00
58473;BME280;44775;51.564;5.460;2023-02-02T02:04:59;101901.81;;;7.70;100.00
58473;BME280;44775;51.564;5.460;2023-02-02T02:07:25;101905.19;;;7.61;100.00
58473;BME280;44775;51.564;5.460;2023-02-02T02:09:51;101903.28;;;7.63;100.00
58473;BME280;44775;51.564;5.460;2023-02-02T02:12:16;101893.94;;;7.69;100.00
58473;BME280;44775;51.564;5.460;2023-02-02T02:14:44;101889.72;;;7.55;100.00
58473;BME280;44775;51.564;5.460;2023-02-02T02:18:03;101881.47;;;7.69;100.00
58473;BME280;44775;51.564;5.460;2023-02-02T02:27:10;101890.44;;;7.46;100.00
58473;BME280;44775;51.564;5.460;2023-02-02T02:30:02;101893.81;;;7.59;100.00
58473;BME280;44775;51.564;5.460;2023-02-02T02:35:31;101893.22;;;7.55;100.00
58473;BME280;44775;51.564;5.460;2023-02-02T02:40:53;101898.69;;;7.43;100.00
58473;BME280;44775;51.564;5.460;2023-02-02T02:43:26;101891.19;;;7.48;100.00
58473;BME280;44775;51.564;5.460;2023-02-02T02:45:54;101899.16;;;7.48;100.00
58473;BME280;44775;51.564;5.460;2023-02-02T02:48:20;101898.69;;;7.43;100.00
58473;BME280;44775;51.564;5.460;2023-02-02T02:50:45;101901.97;;;7.46;100.00
58473;BME280;44775;51.564;5.460;2023-02-02T02:53:15;101899.75;;;7.51;100.00
58473;BME280;44775;51.564;5.460;2023-02-02T02:56:04;101906.41;;;7.46;100.00
58473;BME280;44775;51.564;5.460;2023-02-02T03:04:01;101901.22;;;7.44;100.00
58473;BME280;44775;51.564;5.460;2023-02-02T03:07:20;101889.59;;;7.45;100.00
58473;BME280;44775;51.564;5.460;2023-02-02T03:09:29;101886.72;;;7.48;100.00
58473;BME280;44775;51.564;5.460;2023-02-02T03:11:59;101891.91;;;7.50;100.00
58473;BME280;44775;51.564;5.460;2023-02-02T03:14:25;101883.22;;;7.48;100.00
58473;BME280;44775;51.564;5.460;2023-02-02T03:16:51;101882.59;;;7.44;100.00
58473;BME280;44775;51.564;5.460;2023-02-02T03:19:17;101889.72;;;7.55;100.00
58473;BME280;44775;51.564;5.460;2023-02-02T03:21:42;101892.28;;;7.34;100.00
58473;BME280;44775;51.564;5.460;2023-02-02T03:24:08;101891.19;;;7.48;100.00
58473;BME280;44775;51.564;5.460;2023-02-02T03:26:34;101883.00;;;7.40;100.00
58473;BME280;44775;51.564;5.460;2023-02-02T03:29:00;101891.31;;;7.35;100.00
58473;BME280;44775;51.564;5.460;2023-02-02T03:31:27;101878.63;;;7.27;100.00
58473;BME280;44775;51.564;5.460;2023-02-02T03:33:54;101882.13;;;7.28;100.00
58473;BME280;44775;51.564;5.460;2023-02-02T03:36:20;101879.00;;;7.34;100.00
58473;BME280;44775;51.564;5.460;2023-02-02T03:38:45;101878.88;;;7.24;100.00
58473;BME280;44775;51.564;5.460;2023-02-02T03:41:11;101883.09;;;7.38;100.00
58473;BME280;44775;51.564;5.460;2023-02-02T03:43:36;101889.38;;;7.37;100.00
58473;BME280;44775;51.564;5.460;2023-02-02T03:46:04;101898.09;;;7.39;100.00
58473;BME280;44775;51.564;5.460;2023-02-02T03:48:30;101904.50;;;7.37;100.00
58473;BME280;44775;51.564;5.460;2023-02-02T03:50:56;101915.00;;;7.38;100.00
58473;BME280;44775;51.564;5.460;2023-02-02T03:53:22;101905.44;;;7.36;100.00
58473;BME280;44775;51.564;5.460;2023-02-02T03:55:48;101916.69;;;7.28;100.00
58473;BME280;44775;51.564;5.460;2023-02-02T03:58:13;101914.63;;;7.31;100.00
58473;BME280;44775;51.564;5.460;2023-02-02T04:00:39;101916.22;;;7.23;100.00
58473;BME280;44775;51.564;5.460;2023-02-02T04:03:04;101916.22;;;7.34;100.00
58473;BME280;44775;51.564;5.460;2023-02-02T04:05:30;101913.91;;;7.41;100.00
58473;BME280;44775;51.564;5.460;2023-02-02T04:07:55;101909.09;;;7.34;100.00
58473;BME280;44775;51.564;5.460;2023-02-02T04:10:20;101904.38;;;7.38;100.00
58473;BME280;44775;51.564;5.460;2023-02-02T04:12:46;101909.59;;;7.40;100.00
58473;BME280;44775;51.564;5.460;2023-02-02T04:15:11;101905.59;;;7.34;100.00
58473;BME280;44775;51.564;5.460;2023-02-02T04:17:37;101914.75;;;7.41;100.00
58473;BME280;44775;51.564;5.460;2023-02-02T04:20:03;101916.09;;;7.36;100.00
58473;BME280;44775;51.564;5.460;2023-02-02T04:22:29;101913.31;;;7.37;100.00
58473;BME280;44775;51.564;5.460;2023-02-02T04:24:55;101913.44;;;7.47;100.00
58473;BME280;44775;51.564;5.460;2023-02-02T04:27:20;101919.97;;;7.43;100.00
58473;BME280;44775;51.564;5.460;2023-02-02T04:29:46;101932.28;;;7.44;100.00
58473;BME280;44775;51.564;5.460;2023-02-02T04:32:13;101933.50;;;7.51;100.00
58473;BME280;44775;51.564;5.460;2023-02-02T04:34:39;101926.50;;;7.50;100.00
58473;BME280;44775;51.564;5.460;2023-02-02T04:37:05;101929.28;;;7.60;100.00
58473;BME280;44775;51.564;5.460;2023-02-02T04:39:30;101938.44;;;7.55;100.00
58473;BME280;44775;51.564;5.460;2023-02-02T04:41:55;101937.47;;;7.45;100.00
58473;BME280;44775;51.564;5.460;2023-02-02T04:44:21;101920.06;;;7.52;100.00
58473;BME280;44775;51.564;5.460;2023-02-02T04:46:46;101914.75;;;7.41;100.00
58473;BME280;44775;51.564;5.460;2023-02-02T04:49:12;101913.91;;;7.41;100.00
58473;BME280;44775;51.564;5.460;2023-02-02T04:51:38;101923.22;;;7.35;100.00
58473;BME280;44775;51.564;5.460;2023-02-02T04:54:04;101920.44;;;7.48;100.00
58473;BME280;44775;51.564;5.460;2023-02-02T04:56:30;101916.59;;;7.41;100.00
58473;BME280;44775;51.564;5.460;2023-02-02T04:58:56;101927.34;;;7.28;100.00
58473;BME280;44775;51.564;5.460;2023-02-02T05:01:21;101908.38;;;7.32;100.00
58473;BME280;44775;51.564;5.460;2023-02-02T05:03:47;101916.59;;;7.29;100.00
58473;BME280;44775;51.564;5.460;2023-02-02T05:06:13;101921.41;;;7.36;100.00
58473;BME280;44775;51.564;5.460;2023-02-02T05:08:39;101918.28;;;7.19;100.00
58473;BME280;44775;51.564;5.460;2023-02-02T05:11:08;101930.00;;;7.28;100.00
58473;BME280;44775;51.564;5.460;2023-02-02T05:13:34;101924.31;;;7.21;100.00
58473;BME280;44775;51.564;5.460;2023-02-02T05:15:59;101932.69;;;7.39;100.00
58473;BME280;44775;51.564;5.460;2023-02-02T05:18:25;101933.16;;;7.33;100.00
58473;BME280;44775;51.564;5.460;2023-02-02T05:20:51;101937.63;;;7.44;100.00
58473;BME280;44775;51.564;5.460;2023-02-02T05:23:17;101934.22;;;7.53;100.00
58473;BME280;44775;51.564;5.460;2023-02-02T05:25:43;101942.69;;;7.47;100.00
58473;BME280;44775;51.564;5.460;2023-02-02T05:28:08;101940.03;;;7.47;100.00
58473;BME280;44775;51.564;5.460;2023-02-02T05:30:33;101940.97;;;7.46;100.00
58473;BME280;44775;51.564;5.460;2023-02-02T05:32:59;101938.31;;;7.46;100.00
58473;BME280;44775;51.564;5.460;2023-02-02T05:35:24;101945.47;;;7.45;100.00
58473;BME280;44775;51.564;5.460;2023-02-02T05:37:50;101947.66;;;7.40;100.00
58473;BME280;44775;51.564;5.460;2023-02-02T05:40:15;101944.50;;;7.46;100.00
58473;BME280;44775;51.564;5.460;2023-02-02T05:42:41;101936.16;;;7.51;100.00
58473;BME280;44775;51.564;5.460;2023-02-02T05:45:07;101935.19;;;7.52;100.00
58473;BME280;44775;51.564;5.460;2023-02-02T05:47:32;101943.41;;;7.49;100.00
58473;BME280;44775;51.564;5.460;2023-02-02T05:49:59;101937.00;;;7.51;100.00
58473;BME280;44775;51.564;5.460;2023-02-02T05:52:27;101943.63;;;7.46;100.00
58473;BME280;44775;51.564;5.460;2023-02-02T05:54:54;101941.72;;;7.48;100.00
58473;BME280;44775;51.564;5.460;2023-02-02T05:57:20;101934.72;;;7.47;100.00
58473;BME280;44775;51.564;5.460;2023-02-02T05:59:45;101941.63;;;7.49;100.00
58473;BME280;44775;51.564;5.460;2023-02-02T06:02:11;101948.47;;;7.52;100.00
58473;BME280;44775;51.564;5.460;2023-02-02T06:04:36;101948.84;;;7.58;100.00
58473;BME280;44775;51.564;5.460;2023-02-02T06:07:02;101953.19;;;7.48;100.00
58473;BME280;44775;51.564;5.460;2023-02-02T06:09:27;101948.13;;;7.45;100.00
58473;BME280;44775;51.564;5.460;2023-02-02T06:11:53;101937.59;;;7.55;100.00
58473;BME280;44775;51.564;5.460;2023-02-02T06:14:18;101936.53;;;7.46;100.00
58473;BME280;44775;51.564;5.460;2023-02-02T06:16:44;101945.69;;;7.42;100.00
58473;BME280;44775;51.564;5.460;2023-02-02T06:19:09;101945.22;;;7.37;100.00
58473;BME280;44775;51.564;5.460;2023-02-02T06:21:35;101946.91;;;7.61;100.00
58473;BME280;44775;51.564;5.460;2023-02-02T06:24:00;101953.09;;;7.50;100.00
58473;BME280;44775;51.564;5.460;2023-02-02T06:26:26;101964.06;;;7.68;100.00
58473;BME280;44775;51.564;5.460;2023-02-02T06:28:53;101972.66;;;7.49;100.00
58473;BME280;44775;51.564;5.460;2023-02-02T06:31:19;101969.06;;;7.50;100.00
58473;BME280;44775;51.564;5.460;2023-02-02T06:33:53;101970.84;;;7.38;100.00
58473;BME280;44775;51.564;5.460;2023-02-02T06:36:20;101970.97;;;7.48;100.00
58473;BME280;44775;51.564;5.460;2023-02-02T06:38:49;101968.78;;;7.42;100.00
58473;BME280;44775;51.564;5.460;2023-02-02T06:41:15;101963.84;;;7.48;100.00
58473;BME280;44775;51.564;5.460;2023-02-02T06:43:40;101956.84;;;7.47;100.00
58473;BME280;44775;51.564;5.460;2023-02-02T06:46:06;101963.59;;;7.51;100.00
58473;BME280;44775;51.564;5.460;2023-02-02T06:48:31;101985.97;;;7.38;100.00
58473;BME280;44775;51.564;5.460;2023-02-02T06:50:57;101985.13;;;7.37;100.00
58473;BME280;44775;51.564;5.460;2023-02-02T06:53:23;101979.44;;;7.30;100.00
58473;BME280;44775;51.564;5.460;2023-02-02T06:55:57;101979.44;;;7.30;100.00
58473;BME280;44775;51.564;5.460;2023-02-02T06:58:23;101979.06;;;7.24;100.00
58473;BME280;44775;51.564;5.460;2023-02-02T07:00:49;101983.78;;;7.31;100.00
58473;BME280;44775;51.564;5.460;2023-02-02T07:03:15;101980.66;;;7.26;100.00
58473;BME280;44775;51.564;5.460;2023-02-02T07:05:40;101988.00;;;7.34;100.00
58473;BME280;44775;51.564;5.460;2023-02-02T07:08:06;101990.91;;;7.31;100.00
58473;BME280;44775;51.564;5.460;2023-02-02T07:10:31;101986.81;;;7.27;100.00
58473;BME280;44775;51.564;5.460;2023-02-02T07:12:57;101995.38;;;7.19;100.00
58473;BME280;44775;51.564;5.460;2023-02-02T07:15:22;101991.66;;;7.33;100.00
58473;BME280;44775;51.564;5.460;2023-02-02T07:17:47;101996.09;;;7.21;100.00
58473;BME280;44775;51.564;5.460;2023-02-02T07:20:13;101987.66;;;7.27;100.00
58473;BME280;44775;51.564;5.460;2023-02-02T07:22:40;101985.91;;;7.04;100.00
58473;BME280;44775;51.564;5.460;2023-02-02T07:25:06;101989.31;;;7.28;100.00
58473;BME280;44775;51.564;5.460;2023-02-02T07:27:32;101999.81;;;7.19;100.00
58473;BME280;44775;51.564;5.460;2023-02-02T07:29:58;101997.31;;;7.28;100.00
58473;BME280;44775;51.564;5.460;2023-02-02T07:32:23;101992.72;;;7.19;100.00
58473;BME280;44775;51.564;5.460;2023-02-02T07:34:49;101996.69;;;7.14;100.00
58473;BME280;44775;51.564;5.460;2023-02-02T07:37:15;101982.78;;;6.99;100.00
58473;BME280;44775;51.564;5.460;2023-02-02T07:39:40;101989.69;;;7.13;100.00
58473;BME280;44775;51.564;5.460;2023-02-02T07:42:10;102005.50;;;7.03;100.00
58473;BME280;44775;51.564;5.460;2023-02-02T07:44:35;101999.72;;;7.09;100.00
58473;BME280;44775;51.564;5.460;2023-02-02T07:47:01;102005.25;;;7.06;100.00
58473;BME280;44775;51.564;5.460;2023-02-02T07:49:26;102000.47;;;7.22;100.00
58473;BME280;44775;51.564;5.460;2023-02-02T07:51:52;102018.09;;;7.12;100.00
58473;BME280;44775;51.564;5.460;2023-02-02T07:54:17;102011.41;;;7.06;100.00
58473;BME280;44775;51.564;5.460;2023-02-02T07:56:43;102013.47;;;7.03;100.00
58473;BME280;44775;51.564;5.460;2023-02-02T07:59:09;102015.06;;;7.05;100.00
58473;BME280;44775;51.564;5.460;2023-02-02T08:01:34;102009.84;;;7.04;100.00
58473;BME280;44775;51.564;5.460;2023-02-02T08:04:00;102018.56;;;7.17;100.00
58473;BME280;44775;51.564;5.460;2023-02-02T08:06:26;102015.06;;;7.17;100.00
58473;BME280;44775;51.564;5.460;2023-02-02T08:08:59;102018.56;;;7.17;100.00
58473;BME280;44775;51.564;5.460;2023-02-02T08:11:26;102022.66;;;7.10;100.00
58473;BME280;44775;51.564;5.460;2023-02-02T08:13:55;102034.06;;;7.23;100.00
58473;BME280;44775;51.564;5.460;2023-02-02T08:16:21;102033.59;;;7.29;100.00
58473;BME280;44775;51.564;5.460;2023-02-02T08:18:46;102020.53;;;7.38;100.00
58473;BME280;44775;51.564;5.460;2023-02-02T08:21:12;102042.31;;;7.43;100.00
58473;BME280;44775;51.564;5.460;2023-02-02T08:23:39;102038.78;;;7.42;100.00
58473;BME280;44775;51.564;5.460;2023-02-02T08:26:06;102052.72;;;7.57;100.00
58473;BME280;44775;51.564;5.460;2023-02-02T08:28:32;102044.13;;;7.53;100.00
58473;BME280;44775;51.564;5.460;2023-02-02T08:33:31;102041.38;;;7.66;100.00
58473;BME280;44775;51.564;5.460;2023-02-02T08:35:56;102044.13;;;7.65;100.00
58473;BME280;44775;51.564;5.460;2023-02-02T08:38:22;102046.19;;;7.72;100.00
58473;BME280;44775;51.564;5.460;2023-02-02T08:40:48;102047.66;;;7.76;100.00
58473;BME280;44775;51.564;5.460;2023-02-02T08:43:13;102057.19;;;7.68;100.00
58473;BME280;44775;51.564;5.460;2023-02-02T08:45:41;102061.19;;;7.85;100.00
58473;BME280;44775;51.564;5.460;2023-02-02T08:48:07;102061.91;;;7.75;100.00
58473;BME280;44775;51.564;5.460;2023-02-02T08:50:32;102074.75;;;7.70;100.00
58473;BME280;44775;51.564;5.460;2023-02-02T08:52:58;102076.66;;;7.68;100.00
58473;BME280;44775;51.564;5.460;2023-02-02T08:55:23;102080.28;;;7.78;100.00
58473;BME280;44775;51.564;5.460;2023-02-02T08:57:49;102089.03;;;7.80;100.00
58473;BME280;44775;51.564;5.460;2023-02-02T09:00:14;102089.00;;;7.92;100.00
58473;BME280;44775;51.564;5.460;2023-02-02T09:02:40;102104.28;;;7.90;100.00
58473;BME280;44775;51.564;5.460;2023-02-02T09:05:06;102100.88;;;7.88;100.00
58473;BME280;44775;51.564;5.460;2023-02-02T09:07:31;102106.19;;;7.88;100.00
58473;BME280;44775;51.564;5.460;2023-02-02T09:09:57;102114.19;;;7.99;100.00
58473;BME280;44775;51.564;5.460;2023-02-02T09:12:23;102123.38;;;8.06;100.00
58473;BME280;44775;51.564;5.460;2023-02-02T09:14:49;102122.91;;;8.12;100.00
58473;BME280;44775;51.564;5.460;2023-02-02T09:17:14;102128.56;;;8.19;100.00
58473;BME280;44775;51.564;5.460;2023-02-02T09:19:40;102131.47;;;8.16;100.00
58473;BME280;44775;51.564;5.460;2023-02-02T09:22:05;102124.69;;;8.23;100.00
58473;BME280;44775;51.564;5.460;2023-02-02T09:24:30;102124.34;;;8.27;100.00
58473;BME280;44775;51.564;5.460;2023-02-02T09:26:56;102125.78;;;8.32;100.00
58473;BME280;44775;51.564;5.460;2023-02-02T09:29:21;102122.91;;;8.46;100.00
58473;BME280;44775;51.564;5.460;2023-02-02T09:31:47;102132.09;;;8.42;100.00
58473;BME280;44775;51.564;5.460;2023-02-02T09:34:13;102139.22;;;8.52;100.00
58473;BME280;44775;51.564;5.460;2023-02-02T09:36:39;102138.00;;;8.57;100.00
58473;BME280;44775;51.564;5.460;2023-02-02T09:39:05;102149.25;;;8.71;100.00
58473;BME280;44775;51.564;5.460;2023-02-02T09:49:23;102160.31;;;8.99;100.00
58473;BME280;44775;51.564;5.460;2023-02-02T09:51:55;102162.41;;;8.95;100.00
58473;BME280;44775;51.564;5.460;2023-02-02T09:57:00;102180.81;;;8.98;100.00
58473;BME280;44775;51.564;5.460;2023-02-02T09:59:36;102180.03;;;9.08;100.00
58473;BME280;44775;51.564;5.460;2023-02-02T10:04:51;102184.53;;;9.07;100.00
58473;BME280;44775;51.564;5.460;2023-02-02T10:07:23;102187.72;;;8.90;100.00
58473;BME280;44775;51.564;5.460;2023-02-02T10:10:00;102185.22;;;8.88;100.00
58473;BME280;44775;51.564;5.460;2023-02-02T10:12:44;102183.13;;;8.81;100.00
58473;BME280;44775;51.564;5.460;2023-02-02T10:23:33;102180.56;;;8.90;100.00
58473;BME280;44775;51.564;5.460;2023-02-02T10:28:42;102188.47;;;8.81;100.00
58473;BME280;44775;51.564;5.460;2023-02-02T10:34:31;102181.91;;;8.96;100.00
58473;BME280;44775;51.564;5.460;2023-02-02T10:45:13;102183.19;;;9.13;100.00
58473;BME280;44775;51.564;5.460;2023-02-02T10:47:40;102187.03;;;9.20;100.00
58473;BME280;44775;51.564;5.460;2023-02-02T10:52:38;102192.53;;;9.39;99.48
58473;BME280;44775;51.564;5.460;2023-02-02T10:55:58;102198.47;;;9.43;99.28
58473;BME280;44775;51.564;5.460;2023-02-02T10:58:10;102210.13;;;9.42;99.06
58473;BME280;44775;51.564;5.460;2023-02-02T11:03:13;102219.63;;;9.35;98.33
58473;BME280;44775;51.564;5.460;2023-02-02T11:05:39;102213.84;;;9.18;98.91
58473;BME280;44775;51.564;5.460;2023-02-02T11:08:33;102210.69;;;9.13;99.92
58473;BME280;44775;51.564;5.460;2023-02-02T11:11:23;102202.06;;;9.21;99.75
58473;BME280;44775;51.564;5.460;2023-02-02T11:14:29;102210.75;;;9.02;100.00
58473;BME280;44775;51.564;5.460;2023-02-02T11:17:04;102213.88;;;9.07;100.00
58473;BME280;44775;51.564;5.460;2023-02-02T11:19:32;102209.91;;;8.90;100.00
58473;BME280;44775;51.564;5.460;2023-02-02T11:22:01;102209.56;;;8.84;100.00
58473;BME280;44775;51.564;5.460;2023-02-02T11:24:29;102209.06;;;8.90;100.00
58473;BME280;44775;51.564;5.460;2023-02-02T11:29:32;102194.91;;;8.78;100.00
58473;BME280;44775;51.564;5.460;2023-02-02T11:32:19;102204.22;;;8.95;100.00
58473;BME280;44775;51.564;5.460;2023-02-02T11:34:45;102189.31;;;8.92;100.00
58473;BME280;44775;51.564;5.460;2023-02-02T11:37:21;102192.31;;;8.99;100.00
58473;BME280;44775;51.564;5.460;2023-02-02T11:39:46;102203.72;;;9.01;99.94
58473;BME280;44775;51.564;5.460;2023-02-02T11:42:17;102198.50;;;8.99;100.00
58473;BME280;44775;51.564;5.460;2023-02-02T11:44:49;102207.00;;;8.93;100.00
58473;BME280;44775;51.564;5.460;2023-02-02T11:47:34;102200.19;;;9.01;100.00
58473;BME280;44775;51.564;5.460;2023-02-02T11:50:01;102201.50;;;9.06;100.00
58473;BME280;44775;51.564;5.460;2023-02-02T11:52:29;102195.03;;;8.88;100.00
58473;BME280;44775;51.564;5.460;2023-02-02T11:54:57;102195.63;;;8.80;100.00
58473;BME280;44775;51.564;5.460;2023-02-02T11:57:25;102204.75;;;8.78;100.00
58473;BME280;44775;51.564;5.460;2023-02-02T12:02:34;102199.88;;;8.83;100.00
58473;BME280;44775;51.564;5.460;2023-02-02T12:07:34;102188.22;;;8.84;100.00
58473;BME280;44775;51.564;5.460;2023-02-02T12:24:17;102187.66;;;8.69;100.00
58473;BME280;44775;51.564;5.460;2023-02-02T12:26:55;102185.72;;;8.71;100.00
58473;BME280;44775;51.564;5.460;2023-02-02T12:29:42;102182.69;;;8.75;100.00
58473;BME280;44775;51.564;5.460;2023-02-02T12:37:48;102190.50;;;8.99;100.00
58473;BME280;44775;51.564;5.460;2023-02-02T12:46:03;102181.31;;;9.25;100.00
58473;BME280;44775;51.564;5.460;2023-02-02T12:48:55;102176.06;;;9.34;100.00
58473;BME280;44775;51.564;5.460;2023-02-02T12:51:51;102177.22;;;9.53;100.00
58473;BME280;44775;51.564;5.460;2023-02-02T13:00:03;102171.13;;;9.51;100.00
58473;BME280;44775;51.564;5.460;2023-02-02T13:10:25;102167.13;;;9.56;100.00
58473;BME280;44775;51.564;5.460;2023-02-02T13:12:56;102178.16;;;9.52;100.00
58473;BME280;44775;51.564;5.460;2023-02-02T13:15:36;102177.53;;;9.38;100.00
58473;BME280;44775;51.564;5.460;2023-02-02T13:18:09;102181.88;;;9.39;100.00
58473;BME280;44775;51.564;5.460;2023-02-02T13:20:47;102177.63;;;9.37;100.00
58473;BME280;44775;51.564;5.460;2023-02-02T13:23:22;102176.41;;;9.41;100.00
58473;BME280;44775;51.564;5.460;2023-02-02T13:26:00;102185.44;;;9.29;100.00
58473;BME280;44775;51.564;5.460;2023-02-02T13:28:34;102180.88;;;9.19;100.00
58473;BME280;44775;51.564;5.460;2023-02-02T13:31:02;102177.91;;;8.90;100.00
58473;BME280;44775;51.564;5.460;2023-02-02T13:33:32;102185.56;;;8.95;100.00
58473;BME280;44775;51.564;5.460;2023-02-02T13:36:05;102168.09;;;8.91;100.00
58473;BME280;44775;51.564;5.460;2023-02-02T13:38:33;102181.16;;;8.94;100.00
58473;BME280;44775;51.564;5.460;2023-02-02T13:41:06;102180.94;;;8.97;100.00
58473;BME280;44775;51.564;5.460;2023-02-02T13:43:53;102171.44;;;9.15;100.00
58473;BME280;44775;51.564;5.460;2023-02-02T13:54:14;102171.34;;;9.06;100.00
58473;BME280;44775;51.564;5.460;2023-02-02T13:56:50;102168.38;;;8.88;100.00
58473;BME280;44775;51.564;5.460;2023-02-02T14:01:50;102179.38;;;8.94;100.00
58473;BME280;44775;51.564;5.460;2023-02-02T14:04:20;102169.81;;;8.81;100.00
58473;BME280;44775;51.564;5.460;2023-02-02T14:06:55;102171.53;;;8.82;100.00
58473;BME280;44775;51.564;5.460;2023-02-02T14:09:27;102164.16;;;8.63;100.00
58473;BME280;44775;51.564;5.460;2023-02-02T14:12:06;102171.19;;;8.52;100.00
58473;BME280;44775;51.564;5.460;2023-02-02T14:14:34;102177.16;;;8.45;100.00
58473;BME280;44775;51.564;5.460;2023-02-02T14:19:54;102184.16;;;8.23;100.00
58473;BME280;44775;51.564;5.460;2023-02-02T14:22:44;102190.69;;;8.31;100.00
58473;BME280;44775;51.564;5.460;2023-02-02T14:28:12;102189.97;;;8.17;100.00
58473;BME280;44775;51.564;5.460;2023-02-02T14:31:26;102195.75;;;8.11;100.00
58473;BME280;44775;51.564;5.460;2023-02-02T14:34:14;102195.75;;;8.11;100.00
58473;BME280;44775;51.564;5.460;2023-02-02T14:36:49;102193.56;;;8.05;100.00
58473;BME280;44775;51.564;5.460;2023-02-02T14:39:19;102199.72;;;7.94;100.00
58473;BME280;44775;51.564;5.460;2023-02-02T14:41:56;102205.16;;;7.93;100.00
58473;BME280;44775;51.564;5.460;2023-02-02T14:45:21;102204.66;;;7.88;100.00
58473;BME280;44775;51.564;5.460;2023-02-02T14:47:50;102203.91;;;7.74;100.00
58473;BME280;44775;51.564;5.460;2023-02-02T14:50:26;102205.28;;;7.80;100.00
58473;BME280;44775;51.564;5.460;2023-02-02T14:53:02;102200.75;;;7.69;100.00
58473;BME280;44775;51.564;5.460;2023-02-02T14:55:29;102213.81;;;7.72;100.00
58473;BME280;44775;51.564;5.460;2023-02-02T14:58:00;102218.25;;;7.61;100.00
58473;BME280;44775;51.564;5.460;2023-02-02T15:00:30;102206.41;;;7.53;100.00
58473;BME280;44775;51.564;5.460;2023-02-02T15:03:31;102216.69;;;7.58;100.00
58473;BME280;44775;51.564;5.460;2023-02-02T15:06:31;102211.50;;;7.68;100.00
58473;BME280;44775;51.564;5.460;2023-02-02T15:19:40;102215.50;;;7.38;100.00
58473;BME280;44775;51.564;5.460;2023-02-02T15:24:51;102209.13;;;7.41;100.00